Time;durP1;ratioP1;P1;durP2;ratioP2;P2;SDS_P1;SDS_P2;PMS_P1;PMS_P2;Temp;Humidity;BMP_temperature;BMP_pressure;BME280_temperature;BME280_humidity;BME280_pressure;Samples;Min_cycle;Max_cycle;Signal;HPM_P1;HPM_P2
2022/05/23 00:02:19;;;;;;;1.23;1.00;;;;;;;4.73;74.77;95449.91;6230064;28;19928;-62
2022/05/23 00:05:23;;;;;;;1.60;1.30;;;;;;;4.66;74.89;95443.41;6224071;28;20041;-61
2022/05/23 00:08:29;;;;;;;1.13;1.00;;;;;;;4.73;74.05;95440.31;6225085;28;20049;-66
2022/05/23 00:11:33;;;;;;;1.30;1.20;;;;;;;4.60;73.75;95433.38;6228731;28;20096;-66
2022/05/23 00:14:41;;;;;;;1.60;1.50;;;;;;;4.45;74.43;95430.81;6235216;28;20053;-65
2022/05/23 00:17:45;;;;;;;1.30;1.20;;;;;;;4.48;74.35;95420.22;6236438;28;20045;-66
2022/05/23 00:20:50;;;;;;;1.45;1.35;;;;;;;4.47;74.70;95423.75;6241671;28;20072;-65
2022/05/23 00:23:54;;;;;;;1.52;1.42;;;;;;;4.53;74.79;95408.66;6235675;28;20034;-66
2022/05/23 00:26:58;;;;;;;2.17;1.48;;;;;;;4.60;75.26;95422.97;6236284;28;20651;-66
2022/05/23 00:30:02;;;;;;;1.75;1.50;;;;;;;4.71;74.99;95430.94;6214363;28;20034;-66
2022/05/23 00:36:35;;;;;;;1.50;1.25;;;;;;;4.80;74.71;95430.31;6241674;28;20419;-63
2022/05/23 00:39:40;;;;;;;1.60;1.50;;;;;;;4.83;74.89;95435.34;6231975;28;20038;-63
2022/05/23 00:46:10;;;;;;;1.60;1.50;;;;;;;4.94;75.25;95427.66;6249142;28;20049;-63
2022/05/23 00:49:15;;;;;;;2.30;1.15;;;;;;;4.99;74.82;95429.97;6247901;28;20041;-63
2022/05/23 00:52:44;;;;;;;1.60;1.50;;;;;;;5.02;74.79;95421.09;6234465;28;20067;-62
2022/05/23 00:55:50;;;;;;;2.75;1.67;;;;;;;5.05;74.91;95423.50;6224743;28;20403;-63
2022/05/23 00:58:59;;;;;;;1.60;1.45;;;;;;;5.10;74.84;95411.00;6224455;28;20045;-63
2022/05/23 01:02:04;;;;;;;1.50;1.40;;;;;;;5.14;74.77;95417.69;6222691;28;20046;-63
2022/05/23 01:05:10;;;;;;;1.40;1.30;;;;;;;5.18;74.79;95420.00;6227996;28;20048;-63
2022/05/23 01:08:16;;;;;;;1.92;1.33;;;;;;;5.20;74.76;95424.25;6248529;28;20487;-62
2022/05/23 01:11:21;;;;;;;1.42;1.33;;;;;;;5.22;74.68;95425.81;6247909;28;20057;-61
2022/05/23 01:14:26;;;;;;;1.52;1.40;;;;;;;5.21;74.74;95424.16;6248019;28;20045;-62
2022/05/23 01:17:31;;;;;;;1.35;1.25;;;;;;;5.24;74.65;95418.75;6247229;28;20049;-63
2022/05/23 01:20:34;;;;;;;;;;;;;;;5.26;74.36;95422.06;6247331;28;20128;-65
2022/05/23 01:23:43;;;;;;;1.27;1.17;;;;;;;5.31;74.50;95414.78;6239470;28;19921;-65
2022/05/23 01:26:49;;;;;;;1.15;1.00;;;;;;;5.32;74.44;95411.25;6211993;28;20049;-64
2022/05/23 01:29:54;;;;;;;1.80;1.10;;;;;;;5.33;74.27;95405.09;6239162;28;20402;-66
2022/05/23 01:32:59;;;;;;;1.00;0.90;;;;;;;5.38;74.15;95403.00;6222492;28;20042;-65
2022/05/23 01:36:04;;;;;;;0.80;0.80;;;;;;;5.35;73.96;95397.13;6222239;28;20042;-66
2022/05/23 01:39:09;;;;;;;0.85;0.63;;;;;;;5.29;74.01;95401.00;6222421;28;20046;-65
2022/05/23 01:42:12;;;;;;;;;;;;;;;5.27;73.71;95413.31;6223061;28;20124;-66
2022/05/23 01:45:38;;;;;;;0.85;0.55;;;;;;;5.24;73.90;95403.09;6222210;28;19917;-64
2022/05/23 01:48:43;;;;;;;0.93;0.82;;;;;;;5.30;73.83;95391.41;6218962;28;20050;-66
2022/05/23 01:51:45;;;;;;;;;;;;;;;5.31;73.59;95398.28;6246097;28;20042;-64
2022/05/23 01:54:50;;;;;;;0.68;0.60;;;;;;;5.30;73.91;95392.25;6210048;28;19917;-65
2022/05/23 01:57:54;;;;;;;1.08;0.80;;;;;;;5.31;73.34;95393.06;6208694;28;20045;-66
2022/05/23 02:01:15;;;;;;;;;;;;;;;5.37;73.18;95395.25;6241890;28;20419;-65
2022/05/23 02:04:20;;;;;;;1.45;0.88;;;;;;;5.39;73.58;95391.63;6246186;28;19921;-64
2022/05/23 02:07:24;;;;;;;2.65;0.75;;;;;;;5.43;73.41;95386.19;6246289;28;20041;-66
2022/05/23 02:10:28;;;;;;;;;;;;;;;5.41;72.87;95388.91;6192127;28;1576455;-65
2022/05/23 02:13:38;;;;;;;2.47;1.73;;;;;;;5.37;73.39;95383.06;6239392;28;19921;-65
2022/05/23 02:16:43;;;;;;;2.45;1.48;;;;;;;5.37;73.47;95382.22;6223088;28;20420;-66
2022/05/23 02:19:48;;;;;;;4.57;1.40;;;;;;;5.47;73.42;95382.44;6223033;28;20052;-65
2022/05/23 02:22:52;;;;;;;2.88;1.92;;;;;;;5.47;73.25;95379.84;6214917;28;20041;-65
2022/05/23 02:25:57;;;;;;;6.57;2.13;;;;;;;5.52;73.34;95383.81;6244356;28;20041;-65
2022/05/23 02:29:00;;;;;;;;;;;;;;;5.73;72.64;95378.03;6247335;28;20045;-65
2022/05/23 02:32:03;;;;;;;6.68;1.92;;;;;;;5.66;72.83;95377.59;6226242;28;20383;-65
2022/05/23 02:35:07;;;;;;;10.25;5.30;;;;;;;5.62;72.86;95381.38;6222524;28;20042;-66
2022/05/23 02:38:10;;;;;;;;;;;;;;;5.80;72.64;95380.13;6217282;28;20053;-66
2022/05/23 02:41:15;;;;;;;10.23;3.85;;;;;;;5.85;72.76;95378.00;6246356;28;19917;-66
2022/05/23 02:44:20;;;;;;;9.77;3.38;;;;;;;5.91;72.42;95378.50;6246675;28;20033;-66
2022/05/23 02:47:27;;;;;;;23.30;11.30;;;;;;;5.99;72.79;95368.41;6240243;28;20042;-66
2022/05/23 02:50:32;;;;;;;10.20;3.65;;;;;;;6.02;72.45;95373.41;6222353;28;20046;-65
2022/05/23 02:53:36;;;;;;;11.02;3.90;;;;;;;6.10;72.45;95376.31;6242730;28;20139;-65
2022/05/23 02:56:41;;;;;;;9.20;6.32;;;;;;;6.19;72.05;95375.66;6246006;28;20495;-65
2022/05/23 02:59:45;;;;;;;4.70;2.80;;;;;;;6.35;71.86;95369.34;6244538;28;20037;-66
2022/05/23 03:03:02;;;;;;;3.60;1.58;;;;;;;6.33;71.55;95368.63;6228216;28;20041;-66
2022/05/23 03:06:08;;;;;;;3.15;1.50;;;;;;;6.34;71.54;95360.69;6225802;28;20053;-66
2022/05/23 03:09:12;;;;;;;5.85;1.77;;;;;;;6.45;71.93;95371.16;6221845;28;20038;-66
2022/05/23 03:12:17;;;;;;;2.85;1.50;;;;;;;6.47;72.04;95369.28;6224875;28;20045;-66
2022/05/23 03:15:22;;;;;;;5.10;1.77;;;;;;;6.49;72.14;95374.41;6221258;28;20503;-66
2022/05/23 03:18:28;;;;;;;4.30;1.67;;;;;;;6.46;71.66;95361.56;6221243;28;20038;-66
2022/05/23 03:28:33;;;;;;;9.43;3.22;;;;;;;6.45;71.79;95372.94;6188475;28;20479;-67
2022/05/23 03:31:38;;;;;;;7.13;2.25;;;;;;;6.57;72.29;95374.69;6243688;28;20037;-66
2022/05/23 03:34:43;;;;;;;12.00;5.32;;;;;;;6.78;72.21;95374.06;6245669;28;20403;-65
2022/05/23 03:37:48;;;;;;;3.28;2.50;;;;;;;6.92;72.17;95363.41;6244181;28;20049;-66
2022/05/23 03:40:53;;;;;;;4.38;3.13;;;;;;;6.98;72.02;95355.09;6222876;28;20046;-66
2022/05/23 03:43:58;;;;;;;3.35;2.67;;;;;;;7.22;71.92;95377.72;6245684;28;20126;-65
2022/05/23 03:47:03;;;;;;;4.40;2.22;;;;;;;7.28;71.69;95369.44;6245073;28;20061;-66
2022/05/23 03:50:08;;;;;;;5.95;3.45;;;;;;;7.30;71.03;95362.28;6244671;28;20475;-66
2022/05/23 03:53:12;;;;;;;4.45;3.20;;;;;;;7.30;71.24;95354.44;6221161;28;20041;-66
2022/05/23 03:56:17;;;;;;;4.35;2.58;;;;;;;7.51;71.44;95365.06;6233124;28;20041;-65
2022/05/23 03:59:22;;;;;;;4.32;2.00;;;;;;;7.78;70.70;95351.63;6244817;28;20041;-66
2022/05/23 04:02:27;;;;;;;2.33;1.80;;;;;;;7.87;70.26;95350.91;6245411;28;20132;-66
2022/05/23 04:05:32;;;;;;;1.60;1.30;;;;;;;7.82;70.15;95342.59;6245231;28;20504;-66
2022/05/23 04:08:37;;;;;;;2.63;2.03;;;;;;;7.74;69.93;95339.72;6243846;28;20048;-65
2022/05/23 04:11:42;;;;;;;3.10;2.00;;;;;;;8.07;69.52;95342.31;6224604;28;20490;-66
2022/05/23 04:14:44;;;;;;;;;;;;;;;8.71;68.49;95338.09;6226166;28;20065;-66
2022/05/23 04:17:49;;;;;;;1.90;1.80;;;;;;;8.84;67.61;95336.16;6219237;28;19921;-65
2022/05/23 04:20:57;;;;;;;2.15;1.95;;;;;;;9.01;67.37;95342.63;6218291;28;20045;-64
2022/05/23 04:24:01;;;;;;;3.17;2.22;;;;;;;9.11;66.95;95353.16;6241394;28;20041;-65
2022/05/23 04:27:05;;;;;;;4.00;2.38;;;;;;;9.15;66.73;95333.59;6221144;28;20480;-66
2022/05/23 04:30:09;;;;;;;;;;;;;;;9.35;65.99;95334.56;6231345;28;20408;-66
2022/05/23 04:36:37;;;;;;;4.22;3.35;;;;;;;8.90;66.57;95350.53;6244379;28;20053;-66
2022/05/23 04:39:41;;;;;;;;;;;;;;;8.85;66.71;95353.53;6244740;28;20042;-66
2022/05/23 04:42:45;;;;;;;3.75;3.00;;;;;;;8.71;67.10;95361.69;6245021;28;19920;-66
2022/05/23 04:45:49;;;;;;;5.85;3.28;;;;;;;8.56;66.76;95357.72;6243402;28;20398;-65
2022/05/23 04:52:22;;;;;;;7.15;4.10;;;;;;;8.24;67.78;95348.84;6220277;28;19921;-65
2022/05/23 04:55:28;;;;;;;10.02;7.53;;;;;;;8.30;68.28;95358.00;6222889;28;20080;-66
2022/05/23 04:58:33;;;;;;;12.85;8.30;;;;;;;8.36;67.82;95362.75;6224528;28;20037;-66
2022/05/23 05:01:38;;;;;;;6.38;4.57;;;;;;;8.34;67.81;95364.66;6224827;28;20037;-66
2022/05/23 05:04:43;;;;;;;11.90;7.22;;;;;;;8.26;68.03;95372.28;6241178;28;20334;-66
2022/05/23 05:07:47;;;;;;;42.95;20.60;;;;;;;8.18;68.50;95364.19;6248110;28;20053;-65
2022/05/23 05:10:50;;;;;;;;;;;;;;;8.06;67.96;95361.59;6233406;28;20049;-65
2022/05/23 05:13:54;;;;;;;52.00;24.83;;;;;;;7.75;69.26;95352.69;6222612;28;19921;-66
2022/05/23 05:16:57;;;;;;;;;;;;;;;7.74;69.90;95347.59;6242664;28;20053;-66
2022/05/23 05:20:02;;;;;;;43.58;22.60;;;;;;;7.62;70.70;95337.13;6229826;28;19921;-66
2022/05/23 05:23:07;;;;;;;43.45;21.80;;;;;;;7.69;70.96;95347.09;6247655;28;20042;-65
2022/05/23 05:26:11;;;;;;;;;;;;;;;7.84;70.38;95356.38;6248758;28;20049;-66
2022/05/23 05:29:16;;;;;;;28.58;14.75;;;;;;;7.89;70.96;95359.47;6246939;28;19916;-65
2022/05/23 05:32:40;;;;;;;15.40;7.57;;;;;;;8.06;70.70;95353.72;6248549;28;20049;-67
2022/05/23 05:35:55;;;;;;;9.63;4.82;;;;;;;8.18;70.62;95340.63;6248025;28;20041;-66
2022/05/23 05:39:03;;;;;;;13.32;7.78;;;;;;;8.39;70.37;95354.66;6228870;28;20503;-66
2022/05/23 05:42:30;;;;;;;6.28;4.53;;;;;;;8.68;69.59;95351.47;6238777;28;20044;-65
2022/05/23 05:45:42;;;;;;;22.67;14.10;;;;;;;9.13;68.20;95356.50;6248093;28;20479;-65
2022/05/23 05:48:50;;;;;;;10.45;6.82;;;;;;;9.29;67.89;95345.56;6247668;28;20729;-66
2022/05/23 05:52:01;;;;;;;3.88;3.17;;;;;;;9.42;67.78;95341.75;6247536;28;20484;-65
2022/05/23 05:55:07;;;;;;;4.03;2.75;;;;;;;9.67;67.25;95339.69;6240641;28;20483;-66
2022/05/23 05:58:12;;;;;;;4.78;1.67;;;;;;;9.86;66.79;95329.25;6217136;28;20048;-66
2022/05/23 06:01:16;;;;;;;2.05;0.95;;;;;;;10.05;66.85;95332.91;6222961;28;20416;-66
2022/05/23 06:04:19;;;;;;;;;;;;;;;10.25;66.40;95342.50;6223586;28;20042;-66
2022/05/23 06:14:13;;;;;;;2.85;1.45;;;;;;;9.93;66.69;95355.00;6246796;28;20049;-66
2022/05/23 06:17:16;;;;;;;;;;;;;;;9.96;66.60;95355.53;6230058;28;20038;-66
2022/05/23 06:20:25;;;;;;;4.60;1.85;;;;;;;9.95;66.38;95364.41;6247588;28;19921;-65
2022/05/23 06:23:30;;;;;;;2.85;1.40;;;;;;;9.81;66.51;95360.34;6236790;28;20045;-66
2022/05/23 06:26:36;;;;;;;2.75;1.25;;;;;;;9.62;66.69;95341.84;6222268;28;20041;-66
2022/05/23 06:29:38;;;;;;;;;;;;;;;9.70;66.79;95338.59;6213477;28;20119;-66
2022/05/23 06:32:43;;;;;;;1.65;1.15;;;;;;;9.98;66.57;95347.53;6239452;28;20322;-66
2022/05/23 06:35:46;;;;;;;;;;;;;;;10.41;65.76;95343.81;6247229;28;20037;-66
2022/05/23 06:38:51;;;;;;;7.63;1.90;;;;;;;10.57;64.75;95338.84;6246455;28;19921;-66
2022/05/23 06:41:54;;;;;;;;;;;;;;;10.72;64.05;95352.44;6227421;28;20049;-66
2022/05/23 06:44:59;;;;;;;7.82;2.33;;;;;;;10.59;64.48;95354.47;6223994;28;19932;-66
2022/05/23 06:48:03;;;;;;;4.22;2.30;;;;;;;10.67;64.50;95359.88;6246132;28;20048;-66
2022/05/23 06:51:07;;;;;;;;;;;;;;;10.85;64.01;95358.25;6246668;28;20128;-66
2022/05/23 06:54:11;;;;;;;3.38;1.55;;;;;;;10.89;63.78;95374.59;6243824;28;19921;-65
2022/05/23 06:57:14;;;;;;;;;;;;;;;10.94;63.48;95375.00;6246102;28;20049;-65
2022/05/23 07:00:18;;;;;;;3.95;0.85;;;;;;;10.71;64.02;95367.38;6246314;28;19932;-66
2022/05/23 07:03:24;;;;;;;0.65;0.50;;;;;;;10.62;64.13;95365.59;6229550;28;20049;-66
2022/05/23 07:13:15;;;;;;;0.22;0.20;;;;;;;10.64;64.38;95382.03;6239499;28;20037;-66
2022/05/23 07:16:19;;;;;;;0.30;0.30;;;;;;;10.69;64.04;95394.78;6228309;28;20048;-66
2022/05/23 07:19:22;;;;;;;;;;;;;;;10.65;63.77;95409.19;6245311;28;20041;-66
2022/05/23 07:22:27;;;;;;;2.20;1.70;;;;;;;10.45;64.55;95414.41;6220718;28;19921;-66
2022/05/23 07:25:32;;;;;;;0.75;0.52;;;;;;;10.26;64.69;95409.88;6221150;28;20531;-66
2022/05/23 07:28:37;;;;;;;0.65;0.50;;;;;;;10.07;65.15;95399.28;6221118;28;20042;-67
2022/05/23 07:31:43;;;;;;;7.38;4.75;;;;;;;9.87;66.23;95401.00;6221040;28;20504;-65
2022/05/23 07:34:48;;;;;;;1.80;1.00;;;;;;;10.11;65.58;95384.94;6220986;28;20046;-66
2022/05/23 07:37:54;;;;;;;1.17;0.93;;;;;;;10.17;65.21;95373.91;6238474;28;20072;-66
2022/05/23 07:40:59;;;;;;;1.02;0.68;;;;;;;10.07;65.52;95383.53;6244633;28;20052;-67
2022/05/23 07:44:03;;;;;;;0.63;0.50;;;;;;;9.84;66.79;95367.94;6244997;28;20507;-66
2022/05/23 07:47:06;;;;;;;;;;;;;;;9.81;66.80;95299.91;6245561;28;20041;-66
2022/05/23 07:50:11;;;;;;;2.53;1.25;;;;;;;10.04;67.48;95318.09;6245019;28;19921;-66
2022/05/23 08:03:24;;;;;;;0.75;0.52;;;;;;;11.96;64.24;95338.38;6240824;28;20034;-66
2022/05/23 08:06:31;;;;;;;0.32;0.32;;;;;;;12.69;62.42;95334.91;6229289;28;20046;-66
2022/05/23 08:09:36;;;;;;;1.75;1.33;;;;;;;13.43;60.62;95350.41;6220809;28;20108;-66
2022/05/23 08:12:42;;;;;;;6.57;4.53;;;;;;;13.65;59.75;95350.91;6235859;28;20037;-69
2022/05/23 08:15:46;;;;;;;2.25;1.25;;;;;;;13.62;59.16;95364.44;6223785;28;20037;-68
2022/05/23 08:18:49;;;;;;;1.30;0.82;;;;;;;13.17;59.78;95360.09;6234957;28;20029;-66
2022/05/23 08:21:55;;;;;;;0.98;0.75;;;;;;;12.74;61.38;95354.59;6211747;28;20603;-66
2022/05/23 08:25:00;;;;;;;1.20;0.50;;;;;;;12.58;62.00;95360.53;6244883;28;20507;-64
2022/05/23 08:28:05;;;;;;;0.30;0.30;;;;;;;12.39;61.07;95352.72;6235501;28;20034;-63
2022/05/23 08:31:10;;;;;;;0.73;0.30;;;;;;;11.89;62.08;95358.41;6248261;28;20422;-65
2022/05/23 08:34:15;;;;;;;0.20;0.20;;;;;;;11.44;63.63;95367.78;6249388;28;20045;-64
2022/05/23 08:37:20;;;;;;;0.10;0.10;;;;;;;11.18;64.78;95354.38;6250168;28;20053;-66
2022/05/23 08:40:48;;;;;;;3.13;0.90;;;;;;;10.89;66.05;95364.88;6249798;28;20045;-68
2022/05/23 08:44:06;;;;;;;0.45;0.30;;;;;;;10.71;67.20;95377.91;6247876;28;20045;-66
2022/05/23 08:47:38;;;;;;;4.95;2.67;;;;;;;10.71;67.56;95364.75;6225955;28;20151;-65
2022/05/23 08:51:10;;;;;;;2.50;1.30;;;;;;;10.88;67.14;95381.66;6234938;28;20045;-64
2022/05/23 08:54:28;;;;;;;1.02;0.60;;;;;;;10.98;67.30;95397.44;6236020;28;20038;-67
2022/05/23 08:57:56;;;;;;;2.90;0.80;;;;;;;10.86;67.39;95406.44;6233876;28;20051;-69
2022/05/23 09:01:08;;;;;;;1.55;0.70;;;;;;;10.64;68.26;95412.78;6225194;28;20087;-68
2022/05/23 09:04:46;;;;;;;2.20;0.68;;;;;;;10.66;68.75;95400.31;6224245;28;20030;-70
2022/05/23 09:07:58;;;;;;;0.68;0.60;;;;;;;10.99;68.17;95388.59;6231841;28;20046;-70
2022/05/23 09:11:19;;;;;;;1.63;0.82;;;;;;;11.63;67.01;95393.25;6232176;28;20415;-71
2022/05/23 09:14:25;;;;;;;1.00;0.52;;;;;;;12.36;64.72;95388.13;6235600;28;20033;-68
2022/05/23 09:17:37;;;;;;;0.65;0.40;;;;;;;12.43;63.45;95398.13;6220136;28;20045;-72
2022/05/23 09:20:44;;;;;;;0.65;0.55;;;;;;;12.13;63.66;95408.78;6223979;28;20487;-73
2022/05/23 09:23:51;;;;;;;0.10;0.10;;;;;;;11.80;64.48;95406.63;6220177;28;20136;-69
2022/05/23 09:26:59;;;;;;;0.30;0.30;;;;;;;11.52;65.50;95398.69;6229749;28;20063;-72
2022/05/23 09:30:11;;;;;;;0.43;0.30;;;;;;;11.45;66.12;95429.16;6212338;28;20044;-67
2022/05/23 09:33:19;;;;;;;0.35;0.30;;;;;;;11.32;66.62;95407.56;6227167;28;20033;-68
2022/05/23 09:36:39;;;;;;;1.17;0.60;;;;;;;11.16;67.97;95413.41;6228660;28;20037;-68
2022/05/23 09:39:54;;;;;;;3.17;0.73;;;;;;;11.42;67.28;95418.91;6226685;28;20038;-63
2022/05/23 09:50:03;;;;;;;1.00;0.60;;;;;;;10.90;69.47;95418.34;6221125;28;20041;-63
2022/05/23 09:53:20;;;;;;;0.43;0.30;;;;;;;10.89;69.49;95411.44;6232219;28;20030;-63
2022/05/23 09:56:32;;;;;;;0.70;0.47;;;;;;;10.79;69.67;95409.63;6215420;28;20434;-65
2022/05/23 09:59:39;;;;;;;0.40;0.40;;;;;;;10.69;70.43;95406.16;6245018;28;20041;-63
2022/05/23 10:03:05;;;;;;;0.43;0.43;;;;;;;10.64;70.97;95408.34;6209213;28;20038;-63
2022/05/23 10:06:13;;;;;;;0.30;0.30;;;;;;;10.61;71.47;95403.34;6232693;28;20038;-63
2022/05/23 10:09:37;;;;;;;1.45;0.73;;;;;;;10.68;71.83;95398.41;6210006;28;20155;-64
2022/05/23 10:12:42;;;;;;;3.08;0.70;;;;;;;10.55;72.00;95409.16;6233652;28;20034;-66
2022/05/23 10:15:53;;;;;;;0.73;0.50;;;;;;;10.47;73.15;95409.84;6237481;28;20050;-66
2022/05/23 10:19:06;;;;;;;3.05;0.55;;;;;;;10.49;73.07;95414.97;6223740;28;21598;-64
2022/05/23 10:22:22;;;;;;;0.75;0.30;;;;;;;10.46;73.36;95404.72;6231997;28;20041;-64
2022/05/23 10:25:32;;;;;;;0.47;0.35;;;;;;;10.31;73.79;95409.53;6225640;28;20045;-65
2022/05/23 10:28:45;;;;;;;0.30;0.30;;;;;;;10.33;73.95;95410.19;6230522;28;20033;-65
2022/05/23 10:32:09;;;;;;;0.65;0.52;;;;;;;10.41;74.32;95406.91;6224321;28;20046;-64
2022/05/23 10:35:24;;;;;;;0.85;0.30;;;;;;;10.45;74.18;95416.22;6226639;28;20501;-65
2022/05/23 10:42:38;;;;;;;0.40;0.40;;;;;;;10.33;74.73;95439.97;6226613;28;20042;-65
2022/05/23 10:46:01;;;;;;;1.90;0.50;;;;;;;10.43;74.50;95444.44;6119932;29;20055;-65
2022/05/23 10:49:24;;;;;;;0.30;0.30;;;;;;;10.46;74.70;95446.78;6110931;28;20051;-65
2022/05/23 10:52:44;;;;;;;0.22;0.22;;;;;;;10.58;74.00;95456.22;6233557;28;20499;-65
2022/05/23 10:55:54;;;;;;;0.60;0.52;;;;;;;10.54;74.38;95446.97;6229271;28;20507;-64
2022/05/23 10:59:16;;;;;;;2.30;1.13;;;;;;;10.42;75.17;95445.41;6230685;28;20041;-67
2022/05/23 11:02:40;;;;;;;2.38;1.30;;;;;;;10.51;74.80;95442.78;6218053;28;20399;-68
2022/05/23 11:06:09;;;;;;;1.38;0.93;;;;;;;10.39;75.56;95445.66;6224536;28;20046;-68
2022/05/23 11:09:19;;;;;;;1.90;1.08;;;;;;;10.29;76.14;95429.84;6229010;28;20049;-68
2022/05/23 11:12:57;;;;;;;0.75;0.60;;;;;;;10.34;76.31;95439.00;6208653;28;20042;-64
2022/05/23 11:16:09;;;;;;;0.47;0.47;;;;;;;10.35;76.28;95434.56;6235755;28;20364;-63
2022/05/23 11:19:26;;;;;;;1.75;1.27;;;;;;;10.32;76.87;95440.94;6229388;28;20128;-63
2022/05/23 11:22:37;;;;;;;0.70;0.50;;;;;;;10.40;77.14;95431.56;6234086;28;20045;-64
2022/05/23 11:25:46;;;;;;;0.73;0.32;;;;;;;10.50;77.37;95437.66;6232213;28;20503;-64
2022/05/23 11:36:00;;;;;;;0.90;0.28;;;;;;;11.06;76.44;95438.88;6227717;28;19921;-63
2022/05/23 11:39:06;;;;;;;0.90;0.55;;;;;;;11.03;76.44;95450.50;6230917;28;20038;-65
2022/05/23 11:42:29;;;;;;;1.13;0.73;;;;;;;11.08;76.86;95450.09;6224181;28;20045;-64
2022/05/23 11:45:57;;;;;;;1.15;0.40;;;;;;;11.20;76.12;95444.56;6230167;28;20404;-65
2022/05/23 11:49:03;;;;;;;0.98;0.60;;;;;;;11.20;76.07;95465.63;6234924;28;20415;-63
2022/05/23 11:52:17;;;;;;;1.25;0.75;;;;;;;11.08;76.58;95472.00;6228805;28;20037;-64
2022/05/23 11:55:52;;;;;;;1.30;1.00;;;;;;;11.18;76.27;95491.28;6227504;28;20034;-64
2022/05/23 11:58:57;;;;;;;3.05;0.80;;;;;;;11.18;76.36;95470.22;6229014;28;20038;-64
2022/05/23 12:02:09;;;;;;;1.85;0.65;;;;;;;11.03;77.68;95474.19;6231415;28;20033;-65
2022/05/23 12:05:32;;;;;;;1.15;0.65;;;;;;;11.11;77.97;95484.88;6243557;28;20041;-63
2022/05/23 12:08:39;;;;;;;1.00;0.70;;;;;;;11.04;78.52;95494.31;6240364;28;20037;-64
2022/05/23 12:11:51;;;;;;;0.95;0.75;;;;;;;11.04;79.00;95494.31;6230983;28;20045;-63
2022/05/23 12:14:57;;;;;;;1.33;0.80;;;;;;;11.19;78.26;95486.84;6240587;28;20041;-65
2022/05/23 12:18:02;;;;;;;0.82;0.60;;;;;;;11.10;78.82;95490.28;6215076;28;20045;-67
2022/05/23 12:21:28;;;;;;;1.17;0.60;;;;;;;11.25;78.52;95491.53;6232582;28;20451;-68
2022/05/23 12:24:36;;;;;;;1.02;0.70;;;;;;;11.28;78.71;95490.44;6228748;28;20049;-67
2022/05/23 12:28:07;;;;;;;0.80;0.70;;;;;;;11.46;78.38;95501.94;6224716;28;20132;-67
2022/05/23 12:31:22;;;;;;;4.75;3.00;;;;;;;11.49;78.31;95495.56;6234607;28;20045;-67
2022/05/23 12:34:27;;;;;;;2.58;1.52;;;;;;;11.56;77.63;95467.72;6222490;28;20418;-67
2022/05/23 12:37:38;;;;;;;1.60;1.25;;;;;;;11.84;77.23;95460.75;6234071;28;20041;-64
2022/05/23 12:41:02;;;;;;;0.80;0.80;;;;;;;12.07;76.85;95470.00;6235624;28;20045;-64
2022/05/23 12:44:35;;;;;;;0.68;0.63;;;;;;;12.22;75.88;95486.19;6230521;28;20085;-64
2022/05/23 12:48:17;;;;;;;0.75;0.63;;;;;;;12.31;75.39;95490.63;6211315;28;20050;-63
2022/05/23 12:51:59;;;;;;;0.60;0.50;;;;;;;12.33;74.44;95493.09;6196229;28;20050;-62
2022/05/23 12:55:17;;;;;;;0.70;0.65;;;;;;;12.26;74.53;95498.13;6212161;28;20037;-65
2022/05/23 12:58:49;;;;;;;0.95;0.85;;;;;;;12.22;75.19;95506.47;6223445;28;20042;-65
2022/05/23 13:02:05;;;;;;;1.33;0.73;;;;;;;12.10;75.31;95487.34;6201942;28;20046;-67
2022/05/23 13:05:18;;;;;;;0.68;0.60;;;;;;;12.22;75.49;95498.56;6224407;28;20041;-66
2022/05/23 13:08:27;;;;;;;0.80;0.80;;;;;;;12.31;75.54;95500.31;6214163;28;20044;-66
2022/05/23 13:12:05;;;;;;;0.70;0.70;;;;;;;12.55;74.57;95505.94;6247625;28;20053;-67
2022/05/23 13:15:10;;;;;;;1.00;0.80;;;;;;;12.50;74.90;95516.09;6244505;28;20187;-66
2022/05/23 13:25:02;;;;;;;1.55;1.02;;;;;;;12.33;76.35;95541.41;6226210;28;20049;-66
2022/05/23 13:28:13;;;;;;;1.38;1.10;;;;;;;12.27;77.28;95533.25;6248167;28;20511;-66
2022/05/23 13:31:34;;;;;;;1.08;0.98;;;;;;;12.21;77.91;95531.19;6248463;28;20084;-66
2022/05/23 13:34:43;;;;;;;1.35;1.10;;;;;;;12.11;78.57;95531.19;6218758;28;20054;-66
2022/05/23 13:37:47;;;;;;;1.27;1.10;;;;;;;12.00;78.93;95534.84;6223921;28;20050;-66
2022/05/23 13:40:55;;;;;;;;;;;;;;;12.06;78.91;95544.81;6230003;28;20129;-64
2022/05/23 13:44:01;;;;;;;1.52;1.33;;;;;;;11.96;79.18;95565.06;6223485;28;19921;-64
2022/05/23 13:47:12;;;;;;;3.75;1.23;;;;;;;12.00;78.87;95555.94;6227732;28;20393;-63
2022/05/23 13:50:29;;;;;;;1.90;1.30;;;;;;;11.90;79.13;95571.72;6228199;28;20048;-64
2022/05/23 13:53:44;;;;;;;3.05;1.30;;;;;;;11.79;79.51;95549.94;6223686;28;20042;-70
2022/05/23 13:56:55;;;;;;;2.15;1.50;;;;;;;11.63;80.05;95538.16;6245255;28;20041;-64
2022/05/23 14:00:05;;;;;;;2.05;0.90;;;;;;;11.66;79.93;95513.31;6236975;28;20046;-64
2022/05/23 14:03:22;;;;;;;2.22;0.90;;;;;;;11.58;79.94;95508.75;6235327;28;20050;-64
2022/05/23 14:06:32;;;;;;;1.33;1.00;;;;;;;11.49;80.15;95504.28;6223442;28;20038;-65
2022/05/23 14:09:43;;;;;;;2.80;1.23;;;;;;;11.43;79.84;95504.84;6229879;28;20420;-64
2022/05/23 14:12:50;;;;;;;1.98;1.42;;;;;;;11.26;80.41;95505.53;6228376;28;20037;-61
2022/05/23 14:15:55;;;;;;;1.38;1.20;;;;;;;11.29;79.98;95513.16;6247450;28;20132;-62
2022/05/23 14:19:24;;;;;;;1.35;1.05;;;;;;;11.26;79.64;95530.06;6213029;28;20427;-69
2022/05/23 14:22:32;;;;;;;1.17;0.98;;;;;;;11.16;79.88;95548.50;6222893;28;20041;-68
2022/05/23 14:25:43;;;;;;;2.03;1.13;;;;;;;11.15;80.15;95564.41;6233318;28;20041;-70
2022/05/23 14:28:52;;;;;;;0.90;0.88;;;;;;;11.02;80.79;95585.72;6226094;28;20412;-70
2022/05/23 14:32:00;;;;;;;2.67;1.20;;;;;;;11.01;80.86;95599.81;6232536;28;20045;-62
2022/05/23 14:35:17;;;;;;;1.35;1.15;;;;;;;10.97;81.13;95609.81;6227536;28;20038;-62
2022/05/23 14:38:52;;;;;;;1.80;1.60;;;;;;;10.93;81.58;95592.63;6205050;28;20033;-73
2022/05/23 14:42:17;;;;;;;1.48;1.20;;;;;;;10.69;82.46;95589.47;6220896;28;20041;-74
2022/05/23 14:45:25;;;;;;;2.70;1.25;;;;;;;10.71;82.72;95583.09;6224281;28;20098;-74
2022/05/23 14:48:34;;;;;;;3.55;2.17;;;;;;;10.55;83.37;95583.56;6225522;28;20037;-75
2022/05/23 14:51:44;;;;;;;2.72;1.83;;;;;;;10.51;83.31;95589.25;6216163;28;20534;-74
2022/05/23 15:01:45;;;;;;;1.38;1.02;;;;;;;10.50;83.41;95627.88;6229267;28;20407;-74
2022/05/23 15:04:51;;;;;;;2.63;1.58;;;;;;;10.39;83.61;95629.72;6230134;28;20041;-73
2022/05/23 15:08:00;;;;;;;1.73;1.30;;;;;;;10.31;83.99;95612.78;6245647;28;20037;-72
2022/05/23 15:11:15;;;;;;;2.83;1.52;;;;;;;10.14;84.61;95600.19;6220476;28;20423;-70
2022/05/23 15:14:24;;;;;;;1.60;1.17;;;;;;;10.20;85.01;95597.06;6225901;28;20038;-71
2022/05/23 15:17:29;;;;;;;1.20;1.10;;;;;;;10.16;84.90;95607.94;6228171;28;20534;-68
2022/05/23 15:20:34;;;;;;;1.98;1.23;;;;;;;10.08;85.17;95621.75;6228511;28;20037;-69
2022/05/23 15:23:40;;;;;;;1.00;1.00;;;;;;;10.08;85.42;95632.25;6227955;28;20038;-69
2022/05/23 15:26:45;;;;;;;1.52;1.40;;;;;;;9.89;85.69;95625.03;6231650;28;20037;-67
2022/05/23 15:29:49;;;;;;;2.13;1.55;;;;;;;9.96;85.90;95643.75;6226391;28;20541;-67
2022/05/23 15:32:52;;;;;;;;;;;;;;;10.05;85.81;95653.53;6231049;28;20397;-68
2022/05/23 15:35:56;;;;;;;1.45;1.05;;;;;;;9.94;85.98;95651.78;6231068;28;19918;-68
2022/05/23 15:38:58;;;;;;;;;;;;;;;10.04;85.61;95651.84;6230881;28;20061;-68
2022/05/23 15:42:03;;;;;;;3.25;1.38;;;;;;;9.80;86.48;95652.91;6228399;28;19972;-68
2022/05/23 15:45:08;;;;;;;;;;;;;;;9.85;85.89;95669.13;6213742;28;20053;-67
2022/05/23 15:48:13;;;;;;;1.67;1.02;;;;;;;9.77;86.43;95671.53;6201809;28;20311;-67
2022/05/23 15:51:18;;;;;;;0.85;0.70;;;;;;;9.74;86.73;95694.56;6227365;28;20049;-67
2022/05/23 15:54:22;;;;;;;0.75;0.75;;;;;;;9.70;86.95;95687.91;6211218;28;20038;-67
2022/05/23 15:57:28;;;;;;;;;;;;;;;9.76;86.99;95690.88;6216417;28;20049;-68
2022/05/23 16:00:35;;;;;;;1.23;0.95;;;;;;;9.68;87.42;95709.03;6234941;28;19921;-67
2022/05/23 16:03:40;;;;;;;1.42;1.20;;;;;;;9.62;87.33;95678.88;6224693;28;20041;-67
2022/05/23 16:06:45;;;;;;;0.93;0.93;;;;;;;9.60;87.38;95675.53;6230278;28;20033;-66
2022/05/23 16:09:50;;;;;;;1.98;1.77;;;;;;;9.61;87.13;95692.94;6212429;28;20046;-67
2022/05/23 16:13:00;;;;;;;1.27;1.00;;;;;;;9.59;87.56;95699.28;6231648;28;20041;-67
2022/05/23 16:16:06;;;;;;;1.75;1.30;;;;;;;9.46;88.44;95694.19;6232652;28;20046;-68
2022/05/23 16:19:14;;;;;;;2.50;1.30;;;;;;;9.54;88.23;95701.41;6228518;28;20049;-67
2022/05/23 16:22:22;;;;;;;1.95;1.13;;;;;;;9.52;88.31;95700.72;6221554;28;20030;-66